.
WxDataArchive / Data Records for 2013-07-09
2013-07-08 July 2013 2013-07-10

Data Records for Tuesday, 09 July 2013

Time	Temp	Chill	HIndex	Humid	Dewpt	 Wind 	HiWind	WindDir	Rain 	Barom 
-----	----	-----	------	-----	-----	------	------	-------	-----	----- 
00:00	77.9	77.9	80.2	82	71.9	0	3	315	0.00	29.966 
00:05	77.9	77.9	80.2	82	71.9	0	1	315	0.01	29.966 
00:10	77.6	77.6	79.6	83	72.0	0	1	315	0.00	29.966 
00:15	77.4	77.4	79.2	84	72.2	0	1	315	0.00	29.971 
00:20	77.2	77.2	78.8	84	72.0	0	0	---	0.00	29.971 
00:25	77.0	77.0	78.4	84	71.8	0	1	315	0.00	29.971 
00:30	76.8	76.8	78.0	85	71.9	0	1	315	0.00	29.979 
00:35	76.8	76.8	78.0	85	71.9	0	1	315	0.00	29.979 
00:40	76.7	76.7	77.8	85	71.8	0	1	315	0.00	29.979 
00:45	76.7	76.7	77.8	85	71.8	0	1	315	0.00	29.978 
00:50	76.7	76.7	77.8	85	71.8	0	1	315	0.00	29.978 
00:55	76.7	76.7	77.8	85	71.8	0	1	315	0.00	29.978 
01:00	76.7	76.7	77.8	86	72.2	0	0	---	0.00	29.976 
01:05	76.5	76.5	77.4	86	72.0	0	1	315	0.00	29.976 
01:10	76.5	76.5	77.4	86	72.0	0	2	315	0.00	29.976 
01:15	76.7	76.7	77.8	85	71.8	0	1	315	0.00	29.971 
01:20	76.7	76.7	77.8	85	71.8	0	2	315	0.00	29.971 
01:25	76.7	76.7	77.8	85	71.8	0	2	315	0.00	29.971 
01:30	76.8	76.8	78.0	85	71.9	0	1	315	0.00	29.968 
01:35	76.8	76.8	78.0	85	71.9	0	2	315	0.00	29.968 
01:40	76.8	76.8	78.0	85	71.9	0	1	315	0.00	29.968 
01:45	76.8	76.8	78.0	85	71.9	0	2	315	0.00	29.963 
01:50	76.7	76.7	77.8	85	71.8	0	2	315	0.00	29.963 
01:55	76.7	76.7	77.8	85	71.8	0	1	315	0.00	29.963 
02:00	76.7	76.7	77.8	85	71.8	0	1	315	0.00	29.959 
02:05	76.5	76.5	77.5	85	71.6	0	1	315	0.00	29.959 
02:10	76.5	76.5	77.4	86	72.0	0	1	315	0.00	29.959 
02:15	76.5	76.5	77.4	86	72.0	0	1	315	0.00	29.957 
02:20	76.5	76.5	77.4	86	72.0	0	2	315	0.00	29.957 
02:25	76.3	76.3	77.0	86	71.8	0	1	315	0.00	29.957 
02:30	76.3	76.3	77.0	86	71.8	0	2	315	0.00	29.961 
02:35	76.3	76.3	77.0	86	71.8	1	3	315	0.00	29.961 
02:40	76.3	76.3	77.0	86	71.8	0	2	315	0.00	29.961 
02:45	76.3	76.3	77.0	86	71.8	0	1	315	0.00	29.965 
02:50	76.1	76.1	76.6	86	71.6	0	2	315	0.00	29.965 
02:55	76.1	76.1	76.6	86	71.6	0	3	315	0.00	29.965 
03:00	76.1	76.1	76.6	86	71.6	0	2	315	0.00	29.968 
03:05	76.1	76.1	76.6	86	71.6	0	1	315	0.00	29.968 
03:10	76.1	76.1	76.6	86	71.6	1	5	292	0.00	29.968 
03:15	76.1	76.1	76.6	86	71.6	0	2	292	0.00	29.972 
03:20	76.0	76.0	76.5	86	71.5	0	2	292	0.00	29.972 
03:25	76.0	76.0	76.5	86	71.5	0	2	292	0.00	29.972 
03:30	76.0	76.0	76.5	86	71.5	0	1	292	0.00	29.973 
03:35	76.0	76.0	76.5	86	71.5	0	2	292	0.00	29.973 
03:40	76.1	76.1	76.6	86	71.6	0	2	292	0.00	29.973 
03:45	76.1	76.1	76.6	86	71.6	1	4	292	0.00	29.974 
03:50	76.1	76.1	76.6	86	71.6	0	1	292	0.00	29.974 
03:55	76.1	76.1	76.6	86	71.6	0	2	292	0.00	29.974 
04:00	76.1	76.1	76.6	86	71.6	1	2	292	0.00	29.974 
04:05	76.1	76.1	76.6	86	71.6	1	3	292	0.00	29.974 
04:10	76.1	76.1	76.6	86	71.6	0	2	292	0.00	29.974 
04:15	76.1	76.1	76.6	86	71.6	0	2	292	0.00	29.974 
04:20	76.1	76.1	76.6	86	71.6	0	2	292	0.00	29.974 
04:25	76.1	76.1	76.6	86	71.6	0	2	292	0.00	29.974 
04:30	76.1	76.1	76.6	86	71.6	1	3	292	0.00	29.974 
04:35	76.1	76.1	76.6	86	71.6	1	2	292	0.00	29.974 
04:40	76.1	76.1	76.6	86	71.6	1	3	292	0.00	29.974 
04:45	76.1	76.1	76.6	86	71.6	1	3	292	0.00	29.972 
04:50	76.0	76.0	76.5	86	71.5	0	2	292	0.00	29.972 
04:55	76.0	76.0	76.5	86	71.5	0	2	292	0.00	29.972 
05:00	75.8	75.8	76.1	86	71.3	0	1	292	0.00	29.973 
05:05	75.8	75.8	76.0	87	71.6	0	2	292	0.00	29.973 
05:10	75.6	75.6	75.6	87	71.4	0	2	292	0.00	29.973 
05:15	75.6	75.6	75.6	87	71.4	0	1	292	0.00	29.972 
05:20	75.4	75.4	75.3	87	71.2	0	2	292	0.00	29.972 
05:25	75.4	75.4	75.3	87	71.2	0	1	292	0.00	29.972 
05:30	75.4	75.4	75.1	88	71.6	0	2	292	0.00	29.974 
05:35	75.4	75.4	75.1	88	71.6	0	1	292	0.00	29.974 
05:40	75.4	75.4	75.1	88	71.6	0	3	292	0.00	29.974 
05:45	75.3	75.3	75.0	88	71.5	0	3	292	0.00	29.977 
05:50	75.3	75.3	75.0	88	71.5	0	2	292	0.00	29.977 
05:55	75.3	75.3	75.0	88	71.5	0	1	292	0.00	29.977 
06:00	75.3	75.3	75.0	88	71.5	0	1	292	0.00	29.978 
06:05	75.1	75.1	74.6	88	71.3	0	2	292	0.00	29.978 
06:10	75.1	75.1	74.6	88	71.3	0	2	292	0.00	29.978 
06:15	75.1	75.1	74.6	88	71.3	0	2	292	0.00	29.980 
06:20	75.1	75.1	74.6	88	71.3	0	2	292	0.00	29.980 
06:25	75.1	75.1	74.6	88	71.3	0	3	292	0.00	29.980 
06:30	74.9	74.9	74.9	88	71.1	0	2	292	0.00	29.985 
06:35	74.9	74.9	74.9	88	71.1	0	2	292	0.00	29.985 
06:40	74.9	74.9	74.9	89	71.4	0	2	292	0.00	29.985 
06:45	74.9	74.9	74.9	89	71.4	0	1	292	0.00	29.989 
06:50	74.9	74.9	74.9	89	71.4	1	2	292	0.00	29.989 
06:55	75.1	75.1	74.4	89	71.6	0	1	292	0.00	29.989 
07:00	75.1	75.1	74.4	89	71.6	0	2	292	0.00	29.990 
07:05	75.1	75.1	74.4	89	71.6	0	4	292	0.00	29.990 
07:10	75.3	75.3	74.8	89	71.8	0	2	292	0.00	29.990 
07:15	75.3	75.3	74.8	89	71.8	0	2	292	0.00	29.989 
07:20	75.4	75.4	75.1	88	71.6	0	2	292	0.00	29.989 
07:25	75.6	75.6	75.5	88	71.8	0	1	292	0.00	29.989 
07:30	75.6	75.6	75.5	88	71.8	0	2	292	0.00	29.987 
07:35	75.6	75.6	75.5	88	71.8	0	2	292	0.00	29.987 
07:40	75.8	75.8	75.9	88	72.0	0	3	292	0.00	29.987 
07:45	76.0	76.0	76.3	88	72.2	0	1	292	0.00	29.989 
07:50	76.1	76.1	76.5	88	72.3	0	1	292	0.00	29.989 
07:55	76.1	76.1	76.6	87	71.9	0	2	292	0.00	29.989 
08:00	76.3	76.3	76.9	87	72.1	0	2	292	0.00	29.991 
08:05	76.5	76.5	77.3	87	72.3	0	1	292	0.00	29.991 
08:10	76.5	76.5	77.3	87	72.3	0	1	292	0.00	29.991 
08:15	76.5	76.5	77.3	87	72.3	0	2	292	0.00	29.992 
08:20	76.8	76.8	78.0	86	72.3	0	1	292	0.00	29.992 
08:25	77.0	77.0	78.4	86	72.5	0	2	292	0.00	29.992 
08:30	77.4	77.4	79.2	86	72.9	0	2	292	0.00	29.992 
08:35	77.4	77.4	79.2	84	72.2	1	3	292	0.00	29.992 
08:40	77.4	77.4	79.2	84	72.2	1	3	292	0.00	29.992 
08:45	77.4	77.4	79.2	84	72.2	0	3	292	0.00	29.993 
08:50	77.4	77.4	79.2	84	72.2	1	4	292	0.00	29.993 
08:55	77.4	77.4	79.2	84	72.2	1	4	292	0.00	29.993 
09:00	77.2	77.2	78.8	84	72.0	1	3	292	0.00	30.001 
09:05	77.2	77.2	78.8	84	72.0	1	3	292	0.00	30.001 
09:10	77.4	77.4	79.2	85	72.5	0	2	292	0.00	30.001 
09:15	77.6	77.6	79.6	84	72.4	0	3	292	0.00	29.999 
09:20	77.7	77.7	79.8	84	72.5	1	3	292	0.00	29.999 
09:25	77.9	77.9	80.2	84	72.7	0	2	292	0.00	29.999 
09:30	77.9	77.9	80.2	84	72.7	1	3	292	0.00	29.997 
09:35	78.1	78.1	80.6	83	72.5	2	5	292	0.00	29.997 
09:40	78.5	78.5	81.4	83	72.9	1	2	315	0.00	29.997 
09:45	78.8	78.8	82.0	83	73.2	1	2	315	0.00	29.992 
09:50	79.4	79.4	83.1	81	73.0	1	4	315	0.00	29.992 
09:55	79.8	79.8	83.9	81	73.4	1	3	315	0.00	29.992 
10:00	80.1	80.1	84.4	80	73.4	2	4	315	0.00	29.985 
10:05	80.3	80.3	84.7	79	73.2	1	2	315	0.00	29.985 
10:10	80.7	80.7	85.6	79	73.6	1	4	292	0.00	29.985 
10:15	81.1	81.1	86.3	78	73.6	1	3	292	0.00	29.983 
10:20	81.4	81.4	86.9	78	73.9	1	2	292	0.00	29.983 
10:25	81.6	81.6	87.2	77	73.7	2	3	292	0.00	29.983 
10:30	82.0	82.0	88.0	77	74.1	1	4	292	0.00	29.981 
10:35	82.2	82.2	88.0	75	73.5	2	4	292	0.00	29.981 
10:40	82.4	82.4	88.4	75	73.7	1	4	292	0.00	29.981 
10:45	82.4	82.4	88.4	75	73.7	1	3	292	0.00	29.981 
10:50	82.6	82.6	88.9	75	73.8	2	3	292	0.00	29.981 
10:55	82.8	82.8	89.3	75	74.0	1	3	292	0.00	29.981 
11:00	83.0	83.0	89.5	74	73.8	1	3	292	0.00	29.972 
11:05	83.4	83.4	90.1	73	73.8	1	3	292	0.00	29.972 
11:10	83.6	83.6	90.5	73	74.0	2	4	292	0.00	29.972 
11:15	83.8	83.8	90.7	72	73.8	2	4	292	0.00	29.971 
11:20	83.8	83.8	90.4	71	73.4	3	6	292	0.00	29.971 
11:25	84.0	84.0	90.5	70	73.1	2	4	270	0.00	29.971 
11:30	84.1	84.1	91.0	71	73.7	2	5	292	0.00	29.969 
11:35	84.1	84.1	90.7	70	73.2	1	3	292	0.00	29.969 
11:40	84.3	84.3	91.1	70	73.4	2	4	292	0.00	29.969 
11:45	84.3	84.3	91.1	70	73.4	2	3	292	0.00	29.968 
11:50	84.3	84.3	91.5	71	73.8	1	4	315	0.00	29.968 
11:55	84.5	84.5	91.6	70	73.6	2	4	292	0.00	29.968 
12:00	84.9	84.9	92.5	70	74.0	2	4	292	0.00	29.969 
12:05	85.3	85.3	93.0	69	73.9	2	4	292	0.00	29.969 
12:10	85.5	85.5	93.5	69	74.1	1	5	292	0.00	29.969 
12:15	85.7	85.7	93.9	69	74.3	1	3	292	0.00	29.969 
12:20	85.9	85.9	94.0	68	74.1	1	3	292	0.00	29.969 
12:25	86.1	86.1	94.4	68	74.3	2	4	292	0.00	29.969 
12:30	86.1	86.1	94.9	69	74.7	1	3	292	0.00	29.967 
12:35	85.9	85.9	93.6	67	73.6	2	5	292	0.00	29.967 
12:40	85.5	85.5	93.1	68	73.7	2	4	292	0.00	29.967 
12:45	85.5	85.5	93.5	69	74.1	1	2	292	0.00	29.968 
12:50	85.3	85.3	93.4	70	74.4	1	3	292	0.00	29.968 
12:55	85.3	85.3	93.0	69	73.9	2	5	292	0.00	29.968 
13:00	86.1	86.1	94.9	69	74.7	2	4	292	0.00	29.965 
13:05	86.7	86.7	95.9	68	74.8	2	5	292	0.00	29.965 
13:10	87.0	87.0	96.1	67	74.7	2	5	292	0.00	29.965 
13:15	86.5	86.5	94.9	67	74.2	1	4	292	0.00	29.958 
13:20	85.9	85.9	93.2	66	73.2	2	4	292	0.00	29.958 
13:25	85.3	85.3	92.6	68	73.5	1	3	292	0.00	29.958 
13:30	84.9	84.9	91.7	68	73.1	1	4	292	0.00	29.957 
13:35	84.9	84.9	92.5	70	74.0	1	3	315	0.00	29.957 
13:40	85.3	85.3	93.0	69	73.9	1	3	315	0.00	29.957 
13:45	85.7	85.7	93.9	69	74.3	2	4	315	0.00	29.953 
13:50	86.1	86.1	94.9	69	74.7	2	4	292	0.00	29.953 
13:55	86.7	86.7	95.9	68	74.8	3	7	270	0.00	29.953 
14:00	86.7	86.7	94.5	65	73.5	2	4	270	0.00	29.948 
14:05	86.3	86.3	93.6	65	73.1	2	5	270	0.00	29.948 
14:10	85.9	85.9	92.8	65	72.7	2	5	270	0.00	29.948 
14:15	85.9	85.9	93.6	67	73.6	1	3	292	0.00	29.939 
14:20	86.5	86.5	94.5	66	73.8	2	4	292	0.00	29.939 
14:25	87.2	87.2	93.9	61	72.1	3	6	270	0.00	29.939 
14:30	87.4	87.4	92.6	57	70.3	3	6	292	0.00	29.938 
14:35	87.4	87.4	93.9	60	71.8	3	6	270	0.00	29.938 
14:40	87.2	87.2	93.5	60	71.6	2	5	270	0.00	29.938 
14:45	87.0	87.0	93.9	62	72.4	2	4	270	0.00	29.935 
14:50	87.0	87.0	93.9	62	72.4	1	4	270	0.00	29.935 
14:55	86.5	86.5	92.5	61	71.4	3	10	270	0.00	29.935 
15:00	86.3	86.3	92.4	62	71.7	2	4	270	0.00	29.933 
15:05	86.1	86.1	92.0	62	71.5	3	6	270	0.00	29.933 
15:10	86.1	86.1	92.4	63	72.0	2	4	270	0.00	29.933 
15:15	86.1	86.1	92.4	63	72.0	2	5	270	0.00	29.934 
15:20	86.1	86.1	92.8	64	72.5	2	4	270	0.00	29.934 
15:25	85.9	85.9	92.8	65	72.7	1	3	270	0.00	29.934 
15:30	85.7	85.7	92.0	64	72.1	1	2	270	0.00	29.931 
15:35	85.3	85.3	90.8	63	71.2	2	4	270	0.00	29.931 
15:40	84.9	84.9	89.7	62	70.4	2	5	270	0.00	29.931 
15:45	84.7	84.7	89.3	62	70.2	2	5	270	0.00	29.929 
15:50	84.5	84.5	89.0	62	70.0	2	6	270	0.00	29.929 
15:55	84.3	84.3	88.9	63	70.3	1	3	270	0.00	29.929 
16:00	84.1	84.1	88.8	64	70.6	1	5	270	0.00	29.929 
16:05	84.0	84.0	88.9	65	70.9	2	4	270	0.00	29.929 
16:10	84.0	84.0	89.5	67	71.8	1	3	315	0.00	29.929 
16:15	83.8	83.8	89.4	68	72.1	1	4	292	0.00	29.930 
16:20	83.8	83.8	89.7	69	72.5	1	4	292	0.00	29.930 
16:25	83.6	83.6	89.3	69	72.3	1	3	315	0.00	29.930 
16:30	83.4	83.4	89.2	70	72.6	2	4	315	0.00	29.936 
16:35	83.0	83.0	88.1	69	71.8	1	3	270	0.00	29.936 
16:40	82.4	82.4	87.2	70	71.6	1	3	270	0.00	29.936 
16:45	82.0	82.0	86.9	72	72.1	1	3	270	0.00	29.938 
16:50	81.8	81.8	86.5	72	71.9	1	3	270	0.00	29.938 
16:55	81.6	81.6	86.3	73	72.1	0	2	270	0.00	29.938 
17:00	81.6	81.6	86.5	74	72.5	0	2	270	0.00	29.937 
17:05	81.6	81.6	86.5	74	72.5	0	1	270	0.00	29.937 
17:10	81.6	81.6	86.7	75	72.9	0	1	270	0.00	29.937 
17:15	81.6	81.6	86.9	76	73.3	0	1	270	0.00	29.939 
17:20	81.4	81.4	86.3	75	72.7	0	1	270	0.00	29.939 
17:25	81.4	81.4	86.3	75	72.7	0	2	270	0.00	29.939 
17:30	81.4	81.4	86.3	75	72.7	0	1	270	0.00	29.939 
17:35	81.4	81.4	86.3	75	72.7	0	2	270	0.00	29.939 
17:40	81.4	81.4	86.3	75	72.7	0	1	270	0.00	29.939 
17:45	81.6	81.6	86.7	75	72.9	0	1	270	0.00	29.933 
17:50	81.6	81.6	86.7	75	72.9	0	1	270	0.00	29.933 
17:55	81.6	81.6	86.7	75	72.9	0	1	270	0.00	29.933 
18:00	81.6	81.6	86.5	74	72.5	0	1	270	0.00	29.924 
18:05	81.8	81.8	87.1	75	73.1	0	1	270	0.00	29.924 
18:10	81.8	81.8	86.9	74	72.7	0	1	270	0.00	29.924 
18:15	82.0	82.0	87.3	74	72.9	0	0	---	0.00	29.922 
18:20	82.2	82.2	87.8	74	73.1	0	1	270	0.00	29.922 
18:25	82.2	82.2	87.5	73	72.7	0	1	270	0.00	29.922 
18:30	82.2	82.2	87.5	73	72.7	0	3	270	0.00	29.912 
18:35	82.2	82.2	87.3	72	72.2	0	2	270	0.00	29.912 
18:40	82.2	82.2	87.5	73	72.7	0	1	270	0.00	29.912 
18:45	82.4	82.4	87.9	73	72.9	0	3	270	0.00	29.907 
18:50	82.4	82.4	87.7	72	72.4	1	3	270	0.00	29.907 
18:55	82.6	82.6	88.1	72	72.6	0	2	270	0.00	29.907 
19:00	82.6	82.6	88.1	72	72.6	0	1	270	0.00	29.892 
19:05	82.8	82.8	88.5	72	72.8	0	2	270	0.00	29.892 
19:10	82.8	82.8	88.5	72	72.8	0	3	270	0.00	29.892 
19:15	82.8	82.8	88.5	72	72.8	0	1	270	0.00	29.891 
19:20	82.8	82.8	88.5	72	72.8	0	1	270	0.00	29.891 
19:25	83.0	83.0	88.9	72	73.0	0	0	---	0.00	29.891 
19:30	83.0	83.0	88.9	72	73.0	0	0	---	0.00	29.891 
19:35	83.0	83.0	88.9	72	73.0	0	0	---	0.00	29.891 
19:40	82.8	82.8	88.5	72	72.8	0	0	---	0.00	29.891 
19:45	82.6	82.6	88.1	72	72.6	0	3	270	0.00	29.892 
19:50	82.6	82.6	88.4	73	73.0	0	1	270	0.00	29.892 
19:55	82.4	82.4	87.9	73	72.9	0	1	270	0.00	29.892 
20:00	82.4	82.4	87.9	73	72.9	0	2	270	0.00	29.891 
20:05	82.4	82.4	87.9	73	72.9	0	3	270	0.00	29.891 
20:10	82.4	82.4	87.9	73	72.9	0	3	270	0.00	29.891 
20:15	82.2	82.2	87.8	74	73.1	0	1	270	0.00	29.891 
20:20	82.2	82.2	87.8	74	73.1	0	1	270	0.00	29.891 
20:25	82.0	82.0	87.6	75	73.3	0	1	270	0.00	29.891 
20:30	81.8	81.8	87.1	75	73.1	0	1	270	0.00	29.892 
20:35	81.8	81.8	87.4	76	73.5	0	1	270	0.00	29.892 
20:40	81.6	81.6	86.9	76	73.3	0	0	---	0.00	29.892 
20:45	81.6	81.6	87.2	77	73.7	0	1	270	0.00	29.892 
20:50	81.4	81.4	86.7	77	73.5	0	0	---	0.00	29.892 
20:55	81.4	81.4	86.7	77	73.5	0	0	---	0.00	29.892 
21:00	81.2	81.2	86.5	78	73.7	0	0	---	0.00	29.891 
21:05	81.2	81.2	86.5	78	73.7	0	1	270	0.00	29.891 
21:10	81.1	81.1	86.5	79	73.9	0	0	---	0.00	29.891 
21:15	81.1	81.1	86.5	79	73.9	0	0	---	0.00	29.892 
21:20	80.9	80.9	86.2	80	74.1	0	1	270	0.00	29.892 
21:25	80.9	80.9	86.2	80	74.1	0	0	---	0.00	29.892 
21:30	80.7	80.7	85.9	81	74.3	0	0	---	0.00	29.897 
21:35	80.7	80.7	85.9	81	74.3	0	0	---	0.00	29.897 
21:40	80.7	80.7	85.9	81	74.3	0	0	---	0.00	29.897 
21:45	80.5	80.5	85.5	81	74.1	0	0	---	0.00	29.903 
21:50	80.5	80.5	85.5	81	74.1	0	0	---	0.00	29.903 
21:55	80.5	80.5	85.6	82	74.5	0	1	270	0.00	29.903 
22:00	80.5	80.5	85.6	82	74.5	0	0	---	0.00	29.903 
22:05	80.5	80.5	85.6	82	74.5	0	0	---	0.00	29.903 
22:10	80.5	80.5	85.6	82	74.5	0	1	270	0.00	29.903 
22:15	80.5	80.5	85.6	82	74.5	0	0	---	0.00	29.902 
22:20	80.5	80.5	85.5	81	74.1	0	2	270	0.00	29.902 
22:25	80.7	80.7	85.9	81	74.3	0	1	270	0.00	29.902 
22:30	80.9	80.9	86.4	81	74.5	0	1	270	0.00	29.902 
22:35	80.9	80.9	86.2	80	74.1	0	1	270	0.00	29.902 
22:40	80.9	80.9	86.2	80	74.1	0	2	270	0.00	29.902 
22:45	81.1	81.1	86.5	79	73.9	0	1	270	0.00	29.902 
22:50	81.1	81.1	86.5	79	73.9	0	2	270	0.00	29.902 
22:55	81.1	81.1	86.7	80	74.3	0	1	270	0.00	29.902 
23:00	81.1	81.1	86.5	79	73.9	1	2	270	0.00	29.902 
23:05	81.1	81.1	86.5	79	73.9	0	3	270	0.00	29.902 
23:10	81.1	81.1	86.3	78	73.6	0	2	270	0.00	29.902 
23:15	81.1	81.1	86.3	78	73.6	0	3	270	0.00	29.899 
23:20	81.1	81.1	86.3	78	73.6	0	2	270	0.00	29.899 
23:25	81.1	81.1	86.3	78	73.6	1	2	315	0.00	29.899 
23:30	81.1	81.1	86.3	78	73.6	0	2	270	0.00	29.897 
23:35	80.9	80.9	85.8	78	73.4	0	3	22	0.00	29.897 
23:40	80.7	80.7	85.4	78	73.2	0	3	315	0.00	29.897 
23:45	80.7	80.7	85.6	79	73.6	0	1	315	0.00	29.896 
23:50	80.5	80.5	85.1	79	73.4	0	2	315	0.00	29.896 
23:55	80.5	80.5	85.1	79	73.4	0	3	270	0.00	29.896 

CoCoRaHS
IN-AL-39
A2 Web Hosting
Creative Commons License
GoDaddy
search engine by freefind advanced

loaded 2018-11-16 10:44:56 • last modified 2010-11-18 10:43:29
Privacy PolicyDisclaimer
• wx.awcolley.com is powered by PmWiki v.2002016 •
• all content (unless otherwise noted) © 2018 A W Colley